sensor_id;sensor_type;location;lat;lon;timestamp;P1;durP1;ratioP1;P2;durP2;ratioP2
5147;SDS011;2592;48.140;7.614;2023-07-24T00:00:02;13.33;;;8.00;;
5147;SDS011;2592;48.140;7.614;2023-07-24T00:02:29;16.30;;;8.67;;
5147;SDS011;2592;48.140;7.614;2023-07-24T00:04:55;14.23;;;7.87;;
5147;SDS011;2592;48.140;7.614;2023-07-24T00:07:21;11.17;;;8.10;;
5147;SDS011;2592;48.140;7.614;2023-07-24T00:09:49;11.60;;;8.50;;
5147;SDS011;2592;48.140;7.614;2023-07-24T00:12:16;11.30;;;8.30;;
5147;SDS011;2592;48.140;7.614;2023-07-24T00:14:42;12.67;;;8.23;;
5147;SDS011;2592;48.140;7.614;2023-07-24T00:17:09;10.83;;;7.90;;
5147;SDS011;2592;48.140;7.614;2023-07-24T00:19:35;11.87;;;8.10;;
5147;SDS011;2592;48.140;7.614;2023-07-24T00:22:02;11.80;;;7.40;;
5147;SDS011;2592;48.140;7.614;2023-07-24T00:24:29;12.60;;;8.13;;
5147;SDS011;2592;48.140;7.614;2023-07-24T00:26:57;11.83;;;7.90;;
5147;SDS011;2592;48.140;7.614;2023-07-24T00:29:23;14.00;;;8.80;;
5147;SDS011;2592;48.140;7.614;2023-07-24T00:31:50;13.07;;;8.43;;
5147;SDS011;2592;48.140;7.614;2023-07-24T00:34:16;12.10;;;8.40;;
5147;SDS011;2592;48.140;7.614;2023-07-24T00:36:43;12.00;;;8.43;;
5147;SDS011;2592;48.140;7.614;2023-07-24T00:39:09;14.60;;;7.87;;
5147;SDS011;2592;48.140;7.614;2023-07-24T00:41:35;12.80;;;8.60;;
5147;SDS011;2592;48.140;7.614;2023-07-24T00:44:03;13.40;;;8.10;;
5147;SDS011;2592;48.140;7.614;2023-07-24T00:46:30;11.90;;;8.10;;
5147;SDS011;2592;48.140;7.614;2023-07-24T00:48:57;12.53;;;8.37;;
5147;SDS011;2592;48.140;7.614;2023-07-24T00:51:24;14.53;;;8.57;;
5147;SDS011;2592;48.140;7.614;2023-07-24T00:53:52;11.40;;;8.00;;
5147;SDS011;2592;48.140;7.614;2023-07-24T00:56:18;14.63;;;9.00;;
5147;SDS011;2592;48.140;7.614;2023-07-24T00:58:45;11.60;;;8.80;;
5147;SDS011;2592;48.140;7.614;2023-07-24T01:01:13;14.13;;;9.93;;
5147;SDS011;2592;48.140;7.614;2023-07-24T01:03:39;12.57;;;8.53;;
5147;SDS011;2592;48.140;7.614;2023-07-24T01:06:08;14.23;;;8.90;;
5147;SDS011;2592;48.140;7.614;2023-07-24T01:08:35;16.00;;;8.60;;
5147;SDS011;2592;48.140;7.614;2023-07-24T01:11:03;13.60;;;8.20;;
5147;SDS011;2592;48.140;7.614;2023-07-24T01:13:32;12.20;;;8.20;;
5147;SDS011;2592;48.140;7.614;2023-07-24T01:16:03;15.30;;;8.70;;
5147;SDS011;2592;48.140;7.614;2023-07-24T01:18:32;12.70;;;8.60;;
5147;SDS011;2592;48.140;7.614;2023-07-24T01:20:59;15.23;;;9.50;;
5147;SDS011;2592;48.140;7.614;2023-07-24T01:23:33;18.33;;;9.80;;
5147;SDS011;2592;48.140;7.614;2023-07-24T01:26:05;13.60;;;9.07;;
5147;SDS011;2592;48.140;7.614;2023-07-24T01:28:33;17.67;;;9.67;;
5147;SDS011;2592;48.140;7.614;2023-07-24T01:30:59;14.73;;;9.57;;
5147;SDS011;2592;48.140;7.614;2023-07-24T01:33:25;14.83;;;8.70;;
5147;SDS011;2592;48.140;7.614;2023-07-24T01:35:53;11.90;;;8.00;;
5147;SDS011;2592;48.140;7.614;2023-07-24T01:38:21;14.60;;;9.33;;
5147;SDS011;2592;48.140;7.614;2023-07-24T01:40:48;17.20;;;8.50;;
5147;SDS011;2592;48.140;7.614;2023-07-24T01:43:16;12.87;;;8.80;;
5147;SDS011;2592;48.140;7.614;2023-07-24T01:45:42;12.63;;;8.90;;
5147;SDS011;2592;48.140;7.614;2023-07-24T01:48:09;12.50;;;9.10;;
5147;SDS011;2592;48.140;7.614;2023-07-24T01:50:35;13.03;;;8.70;;
5147;SDS011;2592;48.140;7.614;2023-07-24T01:53:02;16.10;;;10.67;;
5147;SDS011;2592;48.140;7.614;2023-07-24T01:55:28;16.20;;;9.30;;
5147;SDS011;2592;48.140;7.614;2023-07-24T01:57:55;14.13;;;9.57;;
5147;SDS011;2592;48.140;7.614;2023-07-24T02:00:23;16.63;;;8.07;;
5147;SDS011;2592;48.140;7.614;2023-07-24T02:02:49;14.00;;;9.73;;
5147;SDS011;2592;48.140;7.614;2023-07-24T02:05:15;12.90;;;8.47;;
5147;SDS011;2592;48.140;7.614;2023-07-24T02:07:42;14.13;;;9.73;;
5147;SDS011;2592;48.140;7.614;2023-07-24T02:10:09;12.50;;;8.97;;
5147;SDS011;2592;48.140;7.614;2023-07-24T02:12:35;11.87;;;8.30;;
5147;SDS011;2592;48.140;7.614;2023-07-24T02:15:02;14.00;;;8.87;;
5147;SDS011;2592;48.140;7.614;2023-07-24T02:17:30;14.10;;;8.80;;
5147;SDS011;2592;48.140;7.614;2023-07-24T02:19:56;12.00;;;8.37;;
5147;SDS011;2592;48.140;7.614;2023-07-24T02:22:23;11.50;;;7.80;;
5147;SDS011;2592;48.140;7.614;2023-07-24T02:24:49;11.47;;;7.77;;
5147;SDS011;2592;48.140;7.614;2023-07-24T02:27:24;12.73;;;9.27;;
5147;SDS011;2592;48.140;7.614;2023-07-24T02:29:51;13.60;;;8.63;;
5147;SDS011;2592;48.140;7.614;2023-07-24T02:32:17;13.87;;;9.30;;
5147;SDS011;2592;48.140;7.614;2023-07-24T02:34:48;14.50;;;8.30;;
5147;SDS011;2592;48.140;7.614;2023-07-24T02:37:14;14.70;;;9.73;;
5147;SDS011;2592;48.140;7.614;2023-07-24T02:39:40;17.90;;;10.27;;
5147;SDS011;2592;48.140;7.614;2023-07-24T02:42:07;11.63;;;8.50;;
5147;SDS011;2592;48.140;7.614;2023-07-24T02:44:33;12.27;;;8.90;;
5147;SDS011;2592;48.140;7.614;2023-07-24T02:47:00;12.90;;;9.50;;
5147;SDS011;2592;48.140;7.614;2023-07-24T02:49:27;14.57;;;9.30;;
5147;SDS011;2592;48.140;7.614;2023-07-24T02:51:55;13.63;;;9.77;;
5147;SDS011;2592;48.140;7.614;2023-07-24T02:54:21;14.30;;;9.20;;
5147;SDS011;2592;48.140;7.614;2023-07-24T02:56:48;11.03;;;8.37;;
5147;SDS011;2592;48.140;7.614;2023-07-24T02:59:14;12.30;;;8.30;;
5147;SDS011;2592;48.140;7.614;2023-07-24T03:01:40;11.30;;;8.30;;
5147;SDS011;2592;48.140;7.614;2023-07-24T03:04:07;12.33;;;9.07;;
5147;SDS011;2592;48.140;7.614;2023-07-24T03:06:33;13.33;;;8.97;;
5147;SDS011;2592;48.140;7.614;2023-07-24T03:09:02;12.73;;;8.93;;
5147;SDS011;2592;48.140;7.614;2023-07-24T03:11:28;13.23;;;8.80;;
5147;SDS011;2592;48.140;7.614;2023-07-24T03:13:55;12.07;;;7.87;;
5147;SDS011;2592;48.140;7.614;2023-07-24T03:16:21;11.67;;;8.53;;
5147;SDS011;2592;48.140;7.614;2023-07-24T03:18:48;13.40;;;8.87;;
5147;SDS011;2592;48.140;7.614;2023-07-24T03:21:14;14.17;;;9.10;;
5147;SDS011;2592;48.140;7.614;2023-07-24T03:23:41;12.90;;;8.80;;
5147;SDS011;2592;48.140;7.614;2023-07-24T03:26:08;12.57;;;8.63;;
5147;SDS011;2592;48.140;7.614;2023-07-24T03:28:35;13.60;;;9.30;;
5147;SDS011;2592;48.140;7.614;2023-07-24T03:31:01;14.37;;;9.63;;
5147;SDS011;2592;48.140;7.614;2023-07-24T03:33:28;10.20;;;8.10;;
5147;SDS011;2592;48.140;7.614;2023-07-24T03:35:54;14.90;;;9.50;;
5147;SDS011;2592;48.140;7.614;2023-07-24T03:38:21;16.50;;;9.93;;
5147;SDS011;2592;48.140;7.614;2023-07-24T03:40:47;15.73;;;9.13;;
5147;SDS011;2592;48.140;7.614;2023-07-24T03:43:16;15.17;;;9.10;;
5147;SDS011;2592;48.140;7.614;2023-07-24T03:45:42;15.40;;;9.20;;
5147;SDS011;2592;48.140;7.614;2023-07-24T03:48:09;13.20;;;8.90;;
5147;SDS011;2592;48.140;7.614;2023-07-24T03:50:36;13.30;;;9.50;;
5147;SDS011;2592;48.140;7.614;2023-07-24T03:53:02;12.13;;;8.43;;
5147;SDS011;2592;48.140;7.614;2023-07-24T03:55:29;12.33;;;8.67;;
5147;SDS011;2592;48.140;7.614;2023-07-24T03:57:55;15.73;;;8.70;;
5147;SDS011;2592;48.140;7.614;2023-07-24T04:00:23;11.50;;;8.83;;
5147;SDS011;2592;48.140;7.614;2023-07-24T04:02:50;12.07;;;9.07;;
5147;SDS011;2592;48.140;7.614;2023-07-24T04:05:16;13.67;;;9.20;;
5147;SDS011;2592;48.140;7.614;2023-07-24T04:07:43;15.10;;;9.00;;
5147;SDS011;2592;48.140;7.614;2023-07-24T04:10:09;12.80;;;9.50;;
5147;SDS011;2592;48.140;7.614;2023-07-24T04:12:36;15.27;;;11.27;;
5147;SDS011;2592;48.140;7.614;2023-07-24T04:15:02;12.60;;;9.30;;
5147;SDS011;2592;48.140;7.614;2023-07-24T04:17:30;12.90;;;9.93;;
5147;SDS011;2592;48.140;7.614;2023-07-24T04:19:57;15.33;;;9.83;;
5147;SDS011;2592;48.140;7.614;2023-07-24T04:22:24;13.83;;;8.87;;
5147;SDS011;2592;48.140;7.614;2023-07-24T04:24:51;14.77;;;9.03;;
5147;SDS011;2592;48.140;7.614;2023-07-24T04:27:17;14.00;;;8.50;;
5147;SDS011;2592;48.140;7.614;2023-07-24T04:29:44;12.67;;;8.33;;
5147;SDS011;2592;48.140;7.614;2023-07-24T04:32:10;12.67;;;8.30;;
5147;SDS011;2592;48.140;7.614;2023-07-24T04:34:38;11.20;;;8.10;;
5147;SDS011;2592;48.140;7.614;2023-07-24T04:37:05;15.53;;;8.33;;
5147;SDS011;2592;48.140;7.614;2023-07-24T04:39:31;11.27;;;7.90;;
5147;SDS011;2592;48.140;7.614;2023-07-24T04:41:58;13.73;;;8.13;;
5147;SDS011;2592;48.140;7.614;2023-07-24T04:44:25;10.50;;;7.67;;
5147;SDS011;2592;48.140;7.614;2023-07-24T04:46:51;11.37;;;8.33;;
5147;SDS011;2592;48.140;7.614;2023-07-24T04:49:17;12.57;;;8.10;;
5147;SDS011;2592;48.140;7.614;2023-07-24T04:51:45;26.33;;;8.23;;
5147;SDS011;2592;48.140;7.614;2023-07-24T04:54:12;14.13;;;8.50;;
5147;SDS011;2592;48.140;7.614;2023-07-24T04:56:38;11.97;;;7.50;;
5147;SDS011;2592;48.140;7.614;2023-07-24T04:59:05;11.50;;;7.50;;
5147;SDS011;2592;48.140;7.614;2023-07-24T05:01:31;14.20;;;8.10;;
5147;SDS011;2592;48.140;7.614;2023-07-24T05:03:58;12.17;;;7.30;;
5147;SDS011;2592;48.140;7.614;2023-07-24T05:06:24;18.17;;;8.53;;
5147;SDS011;2592;48.140;7.614;2023-07-24T05:08:53;13.70;;;7.50;;
5147;SDS011;2592;48.140;7.614;2023-07-24T05:11:19;11.87;;;7.93;;
5147;SDS011;2592;48.140;7.614;2023-07-24T05:13:46;9.47;;;7.20;;
5147;SDS011;2592;48.140;7.614;2023-07-24T05:16:12;11.97;;;8.43;;
5147;SDS011;2592;48.140;7.614;2023-07-24T05:18:39;11.47;;;8.00;;
5147;SDS011;2592;48.140;7.614;2023-07-24T05:21:05;10.83;;;7.90;;
5147;SDS011;2592;48.140;7.614;2023-07-24T05:23:32;16.90;;;7.97;;
5147;SDS011;2592;48.140;7.614;2023-07-24T05:26:00;12.30;;;8.83;;
5147;SDS011;2592;48.140;7.614;2023-07-24T05:28:26;12.97;;;8.20;;
5147;SDS011;2592;48.140;7.614;2023-07-24T05:30:53;11.83;;;7.67;;
5147;SDS011;2592;48.140;7.614;2023-07-24T05:33:20;12.33;;;7.73;;
5147;SDS011;2592;48.140;7.614;2023-07-24T05:35:47;12.13;;;6.83;;
5147;SDS011;2592;48.140;7.614;2023-07-24T05:38:14;11.03;;;7.70;;
5147;SDS011;2592;48.140;7.614;2023-07-24T05:40:40;11.57;;;8.40;;
5147;SDS011;2592;48.140;7.614;2023-07-24T05:43:08;14.93;;;7.77;;
5147;SDS011;2592;48.140;7.614;2023-07-24T05:45:35;11.83;;;8.30;;
5147;SDS011;2592;48.140;7.614;2023-07-24T05:48:01;11.70;;;7.20;;
5147;SDS011;2592;48.140;7.614;2023-07-24T05:50:28;11.13;;;7.10;;
5147;SDS011;2592;48.140;7.614;2023-07-24T05:52:54;12.50;;;7.50;;
5147;SDS011;2592;48.140;7.614;2023-07-24T05:55:21;15.23;;;7.20;;
5147;SDS011;2592;48.140;7.614;2023-07-24T05:57:47;10.23;;;6.77;;
5147;SDS011;2592;48.140;7.614;2023-07-24T06:00:15;10.80;;;7.10;;
5147;SDS011;2592;48.140;7.614;2023-07-24T06:02:42;9.23;;;6.50;;
5147;SDS011;2592;48.140;7.614;2023-07-24T06:05:08;16.87;;;7.63;;
5147;SDS011;2592;48.140;7.614;2023-07-24T06:07:35;12.10;;;7.03;;
5147;SDS011;2592;48.140;7.614;2023-07-24T06:10:01;10.07;;;6.47;;
5147;SDS011;2592;48.140;7.614;2023-07-24T06:12:28;8.00;;;6.03;;
5147;SDS011;2592;48.140;7.614;2023-07-24T06:14:55;14.10;;;6.47;;
5147;SDS011;2592;48.140;7.614;2023-07-24T06:17:22;9.33;;;6.43;;
5147;SDS011;2592;48.140;7.614;2023-07-24T06:19:49;8.17;;;5.47;;
5147;SDS011;2592;48.140;7.614;2023-07-24T06:22:15;10.37;;;5.90;;
5147;SDS011;2592;48.140;7.614;2023-07-24T06:24:42;7.60;;;5.47;;
5147;SDS011;2592;48.140;7.614;2023-07-24T06:27:09;13.60;;;6.20;;
5147;SDS011;2592;48.140;7.614;2023-07-24T06:29:35;12.40;;;5.93;;
5147;SDS011;2592;48.140;7.614;2023-07-24T06:32:02;8.40;;;5.90;;
5147;SDS011;2592;48.140;7.614;2023-07-24T06:34:29;10.73;;;6.23;;
5147;SDS011;2592;48.140;7.614;2023-07-24T06:36:56;18.20;;;7.20;;
5147;SDS011;2592;48.140;7.614;2023-07-24T06:39:23;11.90;;;6.83;;
5147;SDS011;2592;48.140;7.614;2023-07-24T06:41:50;13.20;;;6.73;;
5147;SDS011;2592;48.140;7.614;2023-07-24T06:44:17;17.30;;;7.07;;
5147;SDS011;2592;48.140;7.614;2023-07-24T06:46:43;10.20;;;6.00;;
5147;SDS011;2592;48.140;7.614;2023-07-24T06:49:10;10.20;;;6.70;;
5147;SDS011;2592;48.140;7.614;2023-07-24T06:51:38;14.77;;;6.40;;
5147;SDS011;2592;48.140;7.614;2023-07-24T06:54:05;12.50;;;7.33;;
5147;SDS011;2592;48.140;7.614;2023-07-24T06:56:31;10.87;;;6.87;;
5147;SDS011;2592;48.140;7.614;2023-07-24T06:58:58;11.90;;;6.23;;
5147;SDS011;2592;48.140;7.614;2023-07-24T07:01:24;9.13;;;6.20;;
5147;SDS011;2592;48.140;7.614;2023-07-24T07:03:51;10.10;;;6.87;;
5147;SDS011;2592;48.140;7.614;2023-07-24T07:06:17;8.70;;;6.60;;
5147;SDS011;2592;48.140;7.614;2023-07-24T07:08:45;13.43;;;6.10;;
5147;SDS011;2592;48.140;7.614;2023-07-24T07:11:11;13.10;;;7.00;;
5147;SDS011;2592;48.140;7.614;2023-07-24T07:13:38;11.70;;;7.07;;
5147;SDS011;2592;48.140;7.614;2023-07-24T07:16:04;11.37;;;7.30;;
5147;SDS011;2592;48.140;7.614;2023-07-24T07:18:31;13.93;;;6.90;;
5147;SDS011;2592;48.140;7.614;2023-07-24T07:20:57;15.80;;;6.90;;
5147;SDS011;2592;48.140;7.614;2023-07-24T07:23:24;12.47;;;7.30;;
5147;SDS011;2592;48.140;7.614;2023-07-24T07:25:52;12.67;;;7.67;;
5147;SDS011;2592;48.140;7.614;2023-07-24T07:28:18;9.10;;;6.83;;
5147;SDS011;2592;48.140;7.614;2023-07-24T07:30:45;11.00;;;6.40;;
5147;SDS011;2592;48.140;7.614;2023-07-24T07:33:11;10.60;;;6.40;;
5147;SDS011;2592;48.140;7.614;2023-07-24T07:35:38;15.13;;;8.10;;
5147;SDS011;2592;48.140;7.614;2023-07-24T07:38:04;12.30;;;6.60;;
5147;SDS011;2592;48.140;7.614;2023-07-24T07:40:31;12.00;;;5.53;;
5147;SDS011;2592;48.140;7.614;2023-07-24T07:42:59;11.47;;;6.30;;
5147;SDS011;2592;48.140;7.614;2023-07-24T07:45:25;11.10;;;6.80;;
5147;SDS011;2592;48.140;7.614;2023-07-24T07:47:52;7.70;;;6.10;;
5147;SDS011;2592;48.140;7.614;2023-07-24T07:50:18;12.70;;;6.17;;
5147;SDS011;2592;48.140;7.614;2023-07-24T07:52:45;10.73;;;6.53;;
5147;SDS011;2592;48.140;7.614;2023-07-24T07:55:11;13.23;;;6.30;;
5147;SDS011;2592;48.140;7.614;2023-07-24T07:57:38;8.70;;;5.77;;
5147;SDS011;2592;48.140;7.614;2023-07-24T08:00:07;8.93;;;6.20;;
5147;SDS011;2592;48.140;7.614;2023-07-24T08:02:33;11.73;;;6.47;;
5147;SDS011;2592;48.140;7.614;2023-07-24T08:05:00;11.10;;;6.67;;
5147;SDS011;2592;48.140;7.614;2023-07-24T08:07:26;18.77;;;7.00;;
5147;SDS011;2592;48.140;7.614;2023-07-24T08:09:53;10.83;;;5.90;;
5147;SDS011;2592;48.140;7.614;2023-07-24T08:12:19;10.70;;;6.07;;
5147;SDS011;2592;48.140;7.614;2023-07-24T08:14:46;11.10;;;6.10;;
5147;SDS011;2592;48.140;7.614;2023-07-24T08:17:14;9.03;;;6.17;;
5147;SDS011;2592;48.140;7.614;2023-07-24T08:19:40;7.50;;;5.03;;
5147;SDS011;2592;48.140;7.614;2023-07-24T08:22:07;11.20;;;6.57;;
5147;SDS011;2592;48.140;7.614;2023-07-24T08:24:33;10.43;;;6.80;;
5147;SDS011;2592;48.140;7.614;2023-07-24T08:27:00;10.50;;;6.50;;
5147;SDS011;2592;48.140;7.614;2023-07-24T08:29:26;8.10;;;5.90;;
5147;SDS011;2592;48.140;7.614;2023-07-24T08:31:53;8.97;;;5.77;;
5147;SDS011;2592;48.140;7.614;2023-07-24T08:34:21;6.97;;;5.87;;
5147;SDS011;2592;48.140;7.614;2023-07-24T08:36:47;12.87;;;7.03;;
5147;SDS011;2592;48.140;7.614;2023-07-24T08:39:13;10.80;;;5.60;;
5147;SDS011;2592;48.140;7.614;2023-07-24T08:41:40;7.43;;;5.87;;
5147;SDS011;2592;48.140;7.614;2023-07-24T08:44:07;10.43;;;6.47;;
5147;SDS011;2592;48.140;7.614;2023-07-24T08:46:34;10.43;;;6.90;;
5147;SDS011;2592;48.140;7.614;2023-07-24T08:49:01;10.40;;;6.50;;
5147;SDS011;2592;48.140;7.614;2023-07-24T08:51:29;8.20;;;5.80;;
5147;SDS011;2592;48.140;7.614;2023-07-24T08:53:56;8.47;;;6.20;;
5147;SDS011;2592;48.140;7.614;2023-07-24T08:56:23;9.10;;;6.57;;
5147;SDS011;2592;48.140;7.614;2023-07-24T08:58:49;14.13;;;5.50;;
5147;SDS011;2592;48.140;7.614;2023-07-24T09:01:16;9.03;;;5.90;;
5147;SDS011;2592;48.140;7.614;2023-07-24T09:03:43;10.17;;;6.73;;
5147;SDS011;2592;48.140;7.614;2023-07-24T09:06:10;7.70;;;5.60;;
5147;SDS011;2592;48.140;7.614;2023-07-24T09:08:38;8.23;;;6.90;;
5147;SDS011;2592;48.140;7.614;2023-07-24T09:11:06;16.50;;;6.07;;
5147;SDS011;2592;48.140;7.614;2023-07-24T09:13:34;11.07;;;6.87;;
5147;SDS011;2592;48.140;7.614;2023-07-24T09:16:01;11.23;;;6.93;;
5147;SDS011;2592;48.140;7.614;2023-07-24T09:18:37;10.87;;;6.40;;
5147;SDS011;2592;48.140;7.614;2023-07-24T09:21:04;11.47;;;6.40;;
5147;SDS011;2592;48.140;7.614;2023-07-24T09:23:30;9.30;;;6.17;;
5147;SDS011;2592;48.140;7.614;2023-07-24T09:25:58;12.40;;;7.00;;
5147;SDS011;2592;48.140;7.614;2023-07-24T09:28:25;10.70;;;6.40;;
5147;SDS011;2592;48.140;7.614;2023-07-24T09:30:52;8.43;;;6.10;;
5147;SDS011;2592;48.140;7.614;2023-07-24T09:33:18;13.37;;;6.93;;
5147;SDS011;2592;48.140;7.614;2023-07-24T09:35:45;12.13;;;6.77;;
5147;SDS011;2592;48.140;7.614;2023-07-24T09:38:22;11.23;;;6.57;;
5147;SDS011;2592;48.140;7.614;2023-07-24T09:40:49;10.97;;;7.30;;
5147;SDS011;2592;48.140;7.614;2023-07-24T09:43:20;10.67;;;6.50;;
5147;SDS011;2592;48.140;7.614;2023-07-24T09:45:47;13.20;;;7.37;;
5147;SDS011;2592;48.140;7.614;2023-07-24T09:48:14;16.07;;;7.87;;
5147;SDS011;2592;48.140;7.614;2023-07-24T09:50:41;10.13;;;6.40;;
5147;SDS011;2592;48.140;7.614;2023-07-24T09:53:09;14.57;;;8.10;;
5147;SDS011;2592;48.140;7.614;2023-07-24T09:55:40;9.07;;;6.80;;
5147;SDS011;2592;48.140;7.614;2023-07-24T09:58:09;13.30;;;6.83;;
5147;SDS011;2592;48.140;7.614;2023-07-24T10:00:37;10.90;;;6.90;;
5147;SDS011;2592;48.140;7.614;2023-07-24T10:03:03;9.93;;;7.50;;
5147;SDS011;2592;48.140;7.614;2023-07-24T10:05:30;10.40;;;6.77;;
5147;SDS011;2592;48.140;7.614;2023-07-24T10:07:56;9.60;;;6.70;;
5147;SDS011;2592;48.140;7.614;2023-07-24T10:10:24;9.50;;;6.80;;
5147;SDS011;2592;48.140;7.614;2023-07-24T10:12:52;12.80;;;7.93;;
5147;SDS011;2592;48.140;7.614;2023-07-24T10:15:18;9.87;;;6.40;;
5147;SDS011;2592;48.140;7.614;2023-07-24T10:17:46;10.90;;;5.73;;
5147;SDS011;2592;48.140;7.614;2023-07-24T10:20:15;7.70;;;5.30;;
5147;SDS011;2592;48.140;7.614;2023-07-24T10:22:42;9.43;;;5.83;;
5147;SDS011;2592;48.140;7.614;2023-07-24T10:25:08;7.70;;;5.60;;
5147;SDS011;2592;48.140;7.614;2023-07-24T10:27:35;14.23;;;6.83;;
5147;SDS011;2592;48.140;7.614;2023-07-24T10:30:02;7.87;;;5.63;;
5147;SDS011;2592;48.140;7.614;2023-07-24T10:32:30;10.87;;;6.63;;
5147;SDS011;2592;48.140;7.614;2023-07-24T10:34:59;9.63;;;6.53;;
5147;SDS011;2592;48.140;7.614;2023-07-24T10:37:33;7.30;;;5.03;;
5147;SDS011;2592;48.140;7.614;2023-07-24T10:40:00;12.60;;;5.00;;
5147;SDS011;2592;48.140;7.614;2023-07-24T10:42:26;10.40;;;4.60;;
5147;SDS011;2592;48.140;7.614;2023-07-24T10:45:01;12.80;;;5.70;;
5147;SDS011;2592;48.140;7.614;2023-07-24T10:47:27;8.50;;;5.03;;
5147;SDS011;2592;48.140;7.614;2023-07-24T10:49:54;8.87;;;5.30;;
5147;SDS011;2592;48.140;7.614;2023-07-24T10:52:30;7.00;;;5.03;;
5147;SDS011;2592;48.140;7.614;2023-07-24T10:54:59;7.33;;;5.03;;
5147;SDS011;2592;48.140;7.614;2023-07-24T10:57:26;8.77;;;5.50;;
5147;SDS011;2592;48.140;7.614;2023-07-24T10:59:53;7.80;;;4.63;;
5147;SDS011;2592;48.140;7.614;2023-07-24T11:02:19;6.00;;;4.63;;
5147;SDS011;2592;48.140;7.614;2023-07-24T11:04:45;6.27;;;4.80;;
5147;SDS011;2592;48.140;7.614;2023-07-24T11:07:12;15.23;;;5.07;;
5147;SDS011;2592;48.140;7.614;2023-07-24T11:09:40;7.83;;;4.73;;
5147;SDS011;2592;48.140;7.614;2023-07-24T11:12:11;6.93;;;5.00;;
5147;SDS011;2592;48.140;7.614;2023-07-24T11:14:45;8.30;;;5.10;;
5147;SDS011;2592;48.140;7.614;2023-07-24T11:17:12;7.37;;;5.00;;
5147;SDS011;2592;48.140;7.614;2023-07-24T11:19:38;6.93;;;4.73;;
5147;SDS011;2592;48.140;7.614;2023-07-24T11:22:05;8.67;;;4.60;;
5147;SDS011;2592;48.140;7.614;2023-07-24T11:24:31;7.33;;;4.77;;
5147;SDS011;2592;48.140;7.614;2023-07-24T11:26:59;6.57;;;4.70;;
5147;SDS011;2592;48.140;7.614;2023-07-24T11:29:26;5.40;;;4.37;;
5147;SDS011;2592;48.140;7.614;2023-07-24T11:31:53;8.37;;;4.90;;
5147;SDS011;2592;48.140;7.614;2023-07-24T11:34:21;7.60;;;4.23;;
5147;SDS011;2592;48.140;7.614;2023-07-24T11:36:48;8.40;;;4.77;;
5147;SDS011;2592;48.140;7.614;2023-07-24T11:39:21;9.47;;;5.20;;
5147;SDS011;2592;48.140;7.614;2023-07-24T11:41:47;13.30;;;5.80;;
5147;SDS011;2592;48.140;7.614;2023-07-24T11:44:15;7.23;;;5.03;;
5147;SDS011;2592;48.140;7.614;2023-07-24T11:46:44;7.70;;;5.60;;
5147;SDS011;2592;48.140;7.614;2023-07-24T11:49:14;9.37;;;5.43;;
5147;SDS011;2592;48.140;7.614;2023-07-24T11:51:40;9.57;;;5.77;;
5147;SDS011;2592;48.140;7.614;2023-07-24T11:54:07;8.67;;;5.13;;
5147;SDS011;2592;48.140;7.614;2023-07-24T11:56:34;10.17;;;5.80;;
5147;SDS011;2592;48.140;7.614;2023-07-24T11:59:08;7.57;;;4.70;;
5147;SDS011;2592;48.140;7.614;2023-07-24T12:01:36;6.70;;;4.53;;
5147;SDS011;2592;48.140;7.614;2023-07-24T12:04:03;16.40;;;5.20;;
5147;SDS011;2592;48.140;7.614;2023-07-24T12:06:30;5.93;;;4.70;;
5147;SDS011;2592;48.140;7.614;2023-07-24T12:09:01;9.63;;;4.83;;
5147;SDS011;2592;48.140;7.614;2023-07-24T12:11:29;6.20;;;4.60;;
5147;SDS011;2592;48.140;7.614;2023-07-24T12:13:56;6.57;;;4.47;;
5147;SDS011;2592;48.140;7.614;2023-07-24T12:16:23;8.00;;;5.17;;
5147;SDS011;2592;48.140;7.614;2023-07-24T12:18:50;5.87;;;4.70;;
5147;SDS011;2592;48.140;7.614;2023-07-24T12:21:17;7.87;;;4.90;;
5147;SDS011;2592;48.140;7.614;2023-07-24T12:23:43;8.20;;;4.50;;
5147;SDS011;2592;48.140;7.614;2023-07-24T12:26:10;8.20;;;4.30;;
5147;SDS011;2592;48.140;7.614;2023-07-24T12:28:36;10.13;;;4.90;;
5147;SDS011;2592;48.140;7.614;2023-07-24T12:31:03;6.50;;;4.90;;
5147;SDS011;2592;48.140;7.614;2023-07-24T12:33:30;6.17;;;4.50;;
5147;SDS011;2592;48.140;7.614;2023-07-24T12:35:58;10.30;;;5.00;;
5147;SDS011;2592;48.140;7.614;2023-07-24T12:38:25;8.40;;;5.33;;
5147;SDS011;2592;48.140;7.614;2023-07-24T12:40:51;6.30;;;4.40;;
5147;SDS011;2592;48.140;7.614;2023-07-24T12:43:18;7.87;;;5.37;;
5147;SDS011;2592;48.140;7.614;2023-07-24T12:45:44;6.77;;;4.60;;
5147;SDS011;2592;48.140;7.614;2023-07-24T12:48:10;5.37;;;4.03;;
5147;SDS011;2592;48.140;7.614;2023-07-24T12:50:37;5.93;;;5.07;;
5147;SDS011;2592;48.140;7.614;2023-07-24T12:53:05;8.90;;;5.37;;
5147;SDS011;2592;48.140;7.614;2023-07-24T12:55:31;8.60;;;4.73;;
5147;SDS011;2592;48.140;7.614;2023-07-24T12:57:58;6.73;;;4.33;;
5147;SDS011;2592;48.140;7.614;2023-07-24T13:00:27;8.70;;;5.03;;
5147;SDS011;2592;48.140;7.614;2023-07-24T13:02:55;11.97;;;4.50;;
5147;SDS011;2592;48.140;7.614;2023-07-24T13:05:21;6.93;;;4.90;;
5147;SDS011;2592;48.140;7.614;2023-07-24T13:07:48;7.93;;;5.60;;
5147;SDS011;2592;48.140;7.614;2023-07-24T13:10:15;8.10;;;5.47;;
5147;SDS011;2592;48.140;7.614;2023-07-24T13:12:42;6.80;;;4.30;;
5147;SDS011;2592;48.140;7.614;2023-07-24T13:15:09;8.57;;;4.90;;
5147;SDS011;2592;48.140;7.614;2023-07-24T13:17:36;7.27;;;4.60;;
5147;SDS011;2592;48.140;7.614;2023-07-24T13:20:04;7.23;;;4.70;;
5147;SDS011;2592;48.140;7.614;2023-07-24T13:22:30;8.47;;;5.30;;
5147;SDS011;2592;48.140;7.614;2023-07-24T13:24:57;11.90;;;4.93;;
5147;SDS011;2592;48.140;7.614;2023-07-24T13:27:25;7.97;;;5.10;;
5147;SDS011;2592;48.140;7.614;2023-07-24T13:29:51;13.97;;;5.50;;
5147;SDS011;2592;48.140;7.614;2023-07-24T13:32:17;6.60;;;5.43;;
5147;SDS011;2592;48.140;7.614;2023-07-24T13:34:44;6.10;;;4.37;;
5147;SDS011;2592;48.140;7.614;2023-07-24T13:37:12;9.13;;;6.43;;
5147;SDS011;2592;48.140;7.614;2023-07-24T13:39:39;7.70;;;5.13;;
5147;SDS011;2592;48.140;7.614;2023-07-24T13:42:05;12.50;;;5.63;;
5147;SDS011;2592;48.140;7.614;2023-07-24T13:44:33;7.70;;;5.43;;
5147;SDS011;2592;48.140;7.614;2023-07-24T13:47:00;9.67;;;4.77;;
5147;SDS011;2592;48.140;7.614;2023-07-24T13:49:26;7.40;;;4.77;;
5147;SDS011;2592;48.140;7.614;2023-07-24T13:51:53;9.73;;;6.37;;
5147;SDS011;2592;48.140;7.614;2023-07-24T13:54:19;7.23;;;5.30;;
5147;SDS011;2592;48.140;7.614;2023-07-24T13:56:46;6.80;;;5.43;;
5147;SDS011;2592;48.140;7.614;2023-07-24T13:59:12;6.57;;;5.00;;
5147;SDS011;2592;48.140;7.614;2023-07-24T14:01:40;7.80;;;5.83;;
5147;SDS011;2592;48.140;7.614;2023-07-24T14:04:06;6.93;;;5.20;;
5147;SDS011;2592;48.140;7.614;2023-07-24T14:06:33;7.80;;;5.30;;
5147;SDS011;2592;48.140;7.614;2023-07-24T14:08:59;7.37;;;5.47;;
5147;SDS011;2592;48.140;7.614;2023-07-24T14:11:26;8.10;;;5.27;;
5147;SDS011;2592;48.140;7.614;2023-07-24T14:13:54;8.60;;;5.33;;
5147;SDS011;2592;48.140;7.614;2023-07-24T14:16:20;10.10;;;5.13;;
5147;SDS011;2592;48.140;7.614;2023-07-24T14:18:48;8.10;;;5.87;;
5147;SDS011;2592;48.140;7.614;2023-07-24T14:21:15;9.80;;;5.50;;
5147;SDS011;2592;48.140;7.614;2023-07-24T14:23:41;10.30;;;5.30;;
5147;SDS011;2592;48.140;7.614;2023-07-24T14:26:07;10.23;;;5.90;;
5147;SDS011;2592;48.140;7.614;2023-07-24T14:28:34;8.07;;;5.63;;
5147;SDS011;2592;48.140;7.614;2023-07-24T14:31:00;9.30;;;4.90;;
5147;SDS011;2592;48.140;7.614;2023-07-24T14:33:27;6.60;;;4.50;;
5147;SDS011;2592;48.140;7.614;2023-07-24T14:35:55;6.10;;;4.57;;
5147;SDS011;2592;48.140;7.614;2023-07-24T14:38:21;6.53;;;4.10;;
5147;SDS011;2592;48.140;7.614;2023-07-24T14:40:48;7.03;;;4.70;;
5147;SDS011;2592;48.140;7.614;2023-07-24T14:43:14;7.23;;;4.70;;
5147;SDS011;2592;48.140;7.614;2023-07-24T14:45:41;7.43;;;4.80;;
5147;SDS011;2592;48.140;7.614;2023-07-24T14:48:07;6.20;;;5.00;;
5147;SDS011;2592;48.140;7.614;2023-07-24T14:50:34;5.50;;;4.60;;
5147;SDS011;2592;48.140;7.614;2023-07-24T14:53:02;7.13;;;4.80;;
5147;SDS011;2592;48.140;7.614;2023-07-24T14:55:29;6.97;;;5.30;;
5147;SDS011;2592;48.140;7.614;2023-07-24T14:57:55;7.07;;;4.77;;
5147;SDS011;2592;48.140;7.614;2023-07-24T15:00:22;7.73;;;5.13;;
5147;SDS011;2592;48.140;7.614;2023-07-24T15:02:48;7.03;;;5.17;;